Weather at Jolai Delamere Estates Airport

Public forecast

Using degrees Celsius for public forecast. Weather courtesy of forecast.io.

Closest aviation weather report (METAR) to Jolai Delamere Estates Airport

Closest report is Nakuru Airport, 13.6 nm (25.3 km) N.

2022/12/04 11:00 (retrieved 45 minutes ago)

HKNK 041100Z 12005KT 9999 -RA BKN024 22/13

Closest aviation forecast (TAF) to Jolai Delamere Estates Airport

Closest forecast is Nairobi Wilson Airport, 60.9 nm (112.9 km) SE.

2022/12/04 06:00 (retrieved 6 hours ago)

TAF TAF HKNW 040500Z 0406/0506 04010KT 9999 BKN018 BECMG 0408/0411 06015KT FEW025CB BKN026 BECMG 0420/0423 04005KT BKN020 BECMG 0508/0511 06010KT BKN020